Terminal Aerodrome Forecast
Issued by NWS

Current Version | Previous Version | Graphics & Text | Print | Product List | Glossary On
Versions: 1 2 3 4 5 6 7 8 9 10 11 12 13 14 15 16 17 18 19 20 21 22 23 24
827
FTUS41 KPBZ 092339
TAFMGW
TAF
KMGW 092339Z 1000/1024 21005KT 1 1/2SM -SN SCT012 OVC022
     FM100600 26010KT P6SM OVC015=

USA.gov is the U.S. government's official web portal to all federal, state and local government web resources and services.